This is the latest recevied weather packets stored in our database for station/object KC4KQE. If no packets are shown the sender has not sent any weather packets the latest 10 day(s).
| Time | Temp. | Humidity | Pressure | Rain* | Wind** | Luminosity | Snow |
|---|---|---|---|---|---|---|---|
| 1778018056 | 24.44° C | 30% | 1010.4 hPa | 0 mm | - | 951 W/m² | - |
| 1778017756 | 24.44° C | 30% | 1010.5 hPa | 0 mm | - | 907 W/m² | - |
| 1778017458 | 23.89° C | 32% | 1010.5 hPa | 0 mm | - | 944 W/m² | - |
| 1778017156 | 23.89° C | 32% | 1010.6 hPa | 0 mm | - | 346 W/m² | - |
| 1778016856 | 24.44° C | 32% | 1010.6 hPa | 0 mm | - | 912 W/m² | - |
| 1778016556 | 23.89° C | 33% | 1010.6 hPa | 0 mm | - | 997 W/m² | - |
| 1778016256 | 23.89° C | 35% | 1010.8 hPa | 0 mm | - | 981 W/m² | - |
| 1778015956 | 23.33° C | 35% | 1010.9 hPa | 0 mm | - | 288 W/m² | - |
| 1778015656 | 23.33° C | 35% | 1011 hPa | 0 mm | - | 677 W/m² | - |
| 1778015356 | 22.78° C | 36% | 1011.1 hPa | 0 mm | - | 661 W/m² | - |
| 1778015056 | 22.78° C | 37% | 1011.1 hPa | 0 mm | - | 309 W/m² | - |
| 1778014757 | 22.78° C | 37% | 1011 hPa | 0 mm | - | 209 W/m² | - |
| 1778014456 | 22.78° C | 37% | 1011.1 hPa | 0 mm | - | 239 W/m² | - |
| 1778014156 | 22.78° C | 36% | 1011.1 hPa | 0 mm | - | 318 W/m² | - |
| 1778013856 | 23.33° C | 38% | 1011.2 hPa | 0 mm | - | 285 W/m² | - |
| 1778013556 | 22.78° C | 39% | 1011.1 hPa | 0 mm | - | 239 W/m² | - |
| 1778013256 | 23.33° C | 36% | 1011.2 hPa | 0 mm | - | 294 W/m² | - |
| 1778012956 | 23.89° C | 36% | 1011.2 hPa | 0 mm | - | 999 W/m² | - |
| 1778012656 | 23.33° C | 39% | 1011.3 hPa | 0 mm | - | 999 W/m² | - |
| 1778012356 | 22.78° C | 38% | 1011.3 hPa | 0 mm | - | 274 W/m² | - |
| 1778012056 | 23.89° C | 38% | 1011.3 hPa | 0 mm | - | 999 W/m² | - |
| 1778011756 | 22.78° C | 41% | 1011.4 hPa | 0 mm | - | 320 W/m² | - |
| 1778011456 | 22.78° C | 39% | 1011.4 hPa | 0 mm | - | 411 W/m² | - |
| 1778011156 | 23.33° C | 41% | 1011.2 hPa | 0 mm | - | 999 W/m² | - |
| 1778010856 | 23.33° C | 40% | 1011.5 hPa | 0 mm | - | 999 W/m² | - |
* Rain latest hour (hover to see other rain measurements)
** Current wind speed in m/s (hover to see current wind gust speed)